X  Close Metar Aviation Weather Data     YPAD Adelaide International
Temperature
20°C Temperature
12°C Dewpoint
60% Humidity



Wind
11 KM/H
7 MPH
3 M/S
6 KTS



160°
SSE
Current Conditions

Clear Clear
Pressure 1010.92 (hPa) - 29.85 (inHg)
Visibility 6.2 (mile) - 10 (km)
Airport
Airport-code YPAD

Location: Adelaide International
Distance: 20 (km)

Metar:
YPAD 291130Z 16006KT CAVOK 20/12 Q1011 NOSIG

Time: 29-02-2020 10:00 pm ACDT